Time;durP1;ratioP1;P1;durP2;ratioP2;P2;SDS_P1;SDS_P2;PMS_P1;PMS_P2;Temp;Humidity;BMP_temperature;BMP_pressure;BME280_temperature;BME280_humidity;BME280_pressure;Samples;Min_cycle;Max_cycle;Signal;HPM_P1;HPM_P2
2024/01/21 00:01:13;;;;;;;9.75;4.38;;;;;;;;;;4983539;28;20045;-71
2024/01/21 00:03:39;;;;;;;9.68;4.82;;;;;;;;;;4984595;28;20038;-70
2024/01/21 00:06:05;;;;;;;13.57;4.75;;;;;;;;;;4972629;28;20563;-70
2024/01/21 00:08:30;;;;;;;11.13;4.57;;;;;;;;;;5021073;28;20030;-71
2024/01/21 00:10:56;;;;;;;13.00;4.60;;;;;;;;;;5022826;28;20184;-70
2024/01/21 00:13:21;;;;;;;12.88;5.88;;;;;;;;;;5023263;28;20049;-71
2024/01/21 00:15:47;;;;;;;12.30;5.45;;;;;;;;;;5023253;28;20084;-71
2024/01/21 00:18:12;;;;;;;11.40;5.10;;;;;;;;;;5022278;28;20057;-71
2024/01/21 00:20:37;;;;;;;10.23;4.28;;;;;;;;;;5025405;28;20032;-70
2024/01/21 00:23:03;;;;;;;14.45;5.20;;;;;;;;;;4999691;28;20547;-71
2024/01/21 00:25:28;;;;;;;8.75;3.85;;;;;;;;;;4971980;28;20043;-71
2024/01/21 00:27:54;;;;;;;11.40;3.78;;;;;;;;;;4963854;28;20042;-70
2024/01/21 00:30:19;;;;;;;10.40;3.20;;;;;;;;;;4969263;28;20034;-71
2024/01/21 00:32:45;;;;;;;9.68;4.53;;;;;;;;;;4967515;29;20050;-71
2024/01/21 00:35:10;;;;;;;12.93;4.80;;;;;;;;;;4970674;28;20035;-70
2024/01/21 00:37:35;;;;;;;10.10;4.75;;;;;;;;;;4987242;28;20031;-70
2024/01/21 00:40:01;;;;;;;11.40;4.63;;;;;;;;;;4995116;28;20051;-71
2024/01/21 00:42:27;;;;;;;9.00;2.97;;;;;;;;;;5002111;28;20032;-71
2024/01/21 00:44:52;;;;;;;12.55;5.20;;;;;;;;;;5001823;28;20053;-71
2024/01/21 00:47:20;;;;;;;8.52;3.60;;;;;;;;;;5003894;28;20049;-71
2024/01/21 00:49:46;;;;;;;7.68;3.42;;;;;;;;;;5001836;28;20046;-70
2024/01/21 00:52:11;;;;;;;10.68;4.55;;;;;;;;;;5002766;28;20056;-70
2024/01/21 00:54:37;;;;;;;10.50;3.70;;;;;;;;;;5001507;28;20045;-70
2024/01/21 00:57:02;;;;;;;12.00;4.10;;;;;;;;;;5002606;28;20018;-71
2024/01/21 00:59:28;;;;;;;10.25;4.55;;;;;;;;;;5002751;28;20049;-70
2024/01/21 01:01:53;;;;;;;10.77;4.53;;;;;;;;;;4987703;28;20030;-71
2024/01/21 01:04:19;;;;;;;11.98;4.25;;;;;;;;;;4982608;28;20039;-71
2024/01/21 01:06:44;;;;;;;11.77;4.93;;;;;;;;;;4985685;28;20046;-71
2024/01/21 01:09:09;;;;;;;7.50;3.75;;;;;;;;;;5001274;28;20033;-70
2024/01/21 01:11:35;;;;;;;9.23;4.43;;;;;;;;;;5000916;28;20711;-72
2024/01/21 01:14:01;;;;;;;6.13;3.20;;;;;;;;;;5003259;28;20058;-71
2024/01/21 01:16:26;;;;;;;7.13;2.85;;;;;;;;;;5002853;28;20046;-70
2024/01/21 01:18:51;;;;;;;7.60;3.35;;;;;;;;;;5001773;28;20050;-71
2024/01/21 01:21:17;;;;;;;7.20;2.95;;;;;;;;;;5003120;28;20030;-70
2024/01/21 01:23:42;;;;;;;9.50;4.20;;;;;;;;;;5002324;28;20022;-71
2024/01/21 01:26:08;;;;;;;9.77;3.95;;;;;;;;;;5004699;28;20129;-69
2024/01/21 01:28:33;;;;;;;6.05;2.83;;;;;;;;;;5002484;28;20859;-70
2024/01/21 01:30:59;;;;;;;7.40;3.70;;;;;;;;;;5000069;28;20030;-71
2024/01/21 01:33:25;;;;;;;6.93;3.28;;;;;;;;;;5000960;28;20077;-70
2024/01/21 01:35:50;;;;;;;10.18;4.80;;;;;;;;;;4996079;28;20035;-70
2024/01/21 01:38:16;;;;;;;4.93;2.67;;;;;;;;;;4970321;28;20043;-70
2024/01/21 01:40:42;;;;;;;8.40;3.53;;;;;;;;;;4976509;28;20035;-70
2024/01/21 01:43:07;;;;;;;8.50;4.38;;;;;;;;;;4984162;28;20090;-71
2024/01/21 01:45:33;;;;;;;9.63;4.35;;;;;;;;;;4982517;28;20031;-70
2024/01/21 01:47:58;;;;;;;6.50;2.63;;;;;;;;;;4981513;28;20093;-70
2024/01/21 01:50:25;;;;;;;13.10;4.38;;;;;;;;;;4982957;28;20034;-71
2024/01/21 01:52:52;;;;;;;7.47;3.47;;;;;;;;;;4983869;28;20035;-70
2024/01/21 01:55:18;;;;;;;5.57;2.67;;;;;;;;;;4983601;28;20039;-70
2024/01/21 01:57:46;;;;;;;6.97;2.88;;;;;;;;;;4982900;28;20077;-71
2024/01/21 02:00:12;;;;;;;7.95;3.15;;;;;;;;;;4982292;28;20035;-71
2024/01/21 02:02:40;;;;;;;6.22;3.67;;;;;;;;;;4984398;28;20033;-70
2024/01/21 02:05:06;;;;;;;10.25;4.53;;;;;;;;;;4982018;28;20098;-70
2024/01/21 02:07:31;;;;;;;12.68;4.07;;;;;;;;;;4994351;28;20736;-71
2024/01/21 02:09:57;;;;;;;9.73;4.00;;;;;;;;;;5002179;28;20042;-70
2024/01/21 02:12:22;;;;;;;10.00;3.53;;;;;;;;;;5002775;28;20031;-71
2024/01/21 02:14:48;;;;;;;5.70;2.72;;;;;;;;;;5002328;28;20026;-71
2024/01/21 02:17:13;;;;;;;8.45;3.72;;;;;;;;;;5003317;28;20042;-70
2024/01/21 02:19:39;;;;;;;6.25;3.42;;;;;;;;;;5001699;28;20500;-70
2024/01/21 02:22:04;;;;;;;8.95;3.38;;;;;;;;;;5000824;28;20104;-70
2024/01/21 02:24:33;;;;;;;6.28;3.38;;;;;;;;;;5006475;28;20034;-71
2024/01/21 02:26:59;;;;;;;5.90;2.95;;;;;;;;;;5007118;28;20061;-70
2024/01/21 02:29:25;;;;;;;5.80;3.03;;;;;;;;;;5006989;28;20448;-70
2024/01/21 02:31:55;;;;;;;9.82;4.07;;;;;;;;;;4997455;28;20054;-71
2024/01/21 02:34:21;;;;;;;10.80;4.78;;;;;;;;;;4995616;28;20034;-70
2024/01/21 02:36:47;;;;;;;9.50;3.05;;;;;;;;;;4981035;28;20035;-71
2024/01/21 02:39:12;;;;;;;8.88;4.50;;;;;;;;;;4990814;28;20026;-70
2024/01/21 02:41:38;;;;;;;7.13;3.08;;;;;;;;;;4992742;28;20027;-71
2024/01/21 02:44:04;;;;;;;8.07;3.03;;;;;;;;;;4971575;28;20781;-70
2024/01/21 02:46:29;;;;;;;6.72;3.22;;;;;;;;;;4982669;28;20043;-71
2024/01/21 02:48:54;;;;;;;6.75;3.05;;;;;;;;;;4967497;28;20062;-71
2024/01/21 02:51:20;;;;;;;6.78;2.83;;;;;;;;;;4966231;28;20038;-70
2024/01/21 02:53:45;;;;;;;6.15;2.67;;;;;;;;;;4983312;28;20035;-71
2024/01/21 02:56:24;;;;;;;7.95;3.38;;;;;;;;;;4982382;28;20532;-71
2024/01/21 02:58:53;;;;;;;9.32;3.67;;;;;;;;;;4967764;28;20046;-70
2024/01/21 03:01:19;;;;;;;7.43;3.67;;;;;;;;;;4965865;28;20047;-70
2024/01/21 03:03:45;;;;;;;8.40;3.67;;;;;;;;;;4966159;28;20090;-70
2024/01/21 03:06:10;;;;;;;7.40;3.63;;;;;;;;;;4966684;28;20404;-71
2024/01/21 03:08:36;;;;;;;7.63;3.30;;;;;;;;;;4984465;28;20095;-71
2024/01/21 03:11:02;;;;;;;5.28;3.00;;;;;;;;;;4985800;28;20062;-71
2024/01/21 03:13:27;;;;;;;8.88;2.97;;;;;;;;;;4986041;28;20043;-71
2024/01/21 03:15:53;;;;;;;9.18;4.38;;;;;;;;;;4985115;28;20275;-71
2024/01/21 03:18:19;;;;;;;9.40;3.67;;;;;;;;;;4985640;28;20034;-71
2024/01/21 03:20:45;;;;;;;6.43;3.53;;;;;;;;;;4986890;28;20061;-71
2024/01/21 03:23:10;;;;;;;5.63;3.28;;;;;;;;;;4986376;28;20501;-70
2024/01/21 03:25:36;;;;;;;10.18;3.65;;;;;;;;;;4985256;28;20049;-70
2024/01/21 03:28:03;;;;;;;12.93;4.35;;;;;;;;;;4983745;28;20050;-70
2024/01/21 03:30:28;;;;;;;6.85;3.80;;;;;;;;;;4984431;28;20049;-71
2024/01/21 03:32:54;;;;;;;6.95;3.63;;;;;;;;;;4986792;28;20022;-70
2024/01/21 03:35:19;;;;;;;7.20;3.38;;;;;;;;;;4984329;28;20420;-71
2024/01/21 03:37:44;;;;;;;8.55;3.85;;;;;;;;;;4988292;28;20193;-71
2024/01/21 03:40:10;;;;;;;7.50;3.20;;;;;;;;;;4981418;28;20074;-71
2024/01/21 03:42:35;;;;;;;6.88;2.85;;;;;;;;;;4985929;28;20073;-70
2024/01/21 03:45:01;;;;;;;7.55;3.35;;;;;;;;;;4987197;28;20033;-70
2024/01/21 03:47:26;;;;;;;8.35;3.42;;;;;;;;;;4983458;28;20046;-70
2024/01/21 03:49:52;;;;;;;9.98;4.30;;;;;;;;;;4984276;28;20039;-70
2024/01/21 03:52:17;;;;;;;11.02;3.92;;;;;;;;;;4985795;28;20109;-70
2024/01/21 03:54:43;;;;;;;9.63;4.05;;;;;;;;;;4982971;28;20066;-71
2024/01/21 03:57:08;;;;;;;10.68;4.00;;;;;;;;;;4984818;28;20031;-71
2024/01/21 03:59:34;;;;;;;7.80;3.80;;;;;;;;;;4984618;28;20029;-71
2024/01/21 04:01:59;;;;;;;13.10;4.63;;;;;;;;;;4984606;28;20110;-70
2024/01/21 04:04:24;;;;;;;6.60;3.72;;;;;;;;;;4990360;28;20042;-71
2024/01/21 04:06:50;;;;;;;9.43;4.22;;;;;;;;;;5005009;28;20452;-71
2024/01/21 04:09:19;;;;;;;9.48;3.75;;;;;;;;;;5002633;28;20041;-71
2024/01/21 04:11:45;;;;;;;4.95;2.42;;;;;;;;;;5005619;28;20022;-70
2024/01/21 04:14:10;;;;;;;10.77;4.82;;;;;;;;;;5003658;28;20112;-70
2024/01/21 04:16:36;;;;;;;8.55;3.40;;;;;;;;;;5003860;28;20133;-70
2024/01/21 04:19:01;;;;;;;8.45;3.60;;;;;;;;;;5004369;28;20125;-70
2024/01/21 04:21:27;;;;;;;8.18;3.28;;;;;;;;;;5003727;28;20026;-71
2024/01/21 04:23:52;;;;;;;7.43;4.22;;;;;;;;;;5004172;28;20064;-71
2024/01/21 04:26:17;;;;;;;10.45;4.93;;;;;;;;;;5004048;28;20046;-71
2024/01/21 04:28:43;;;;;;;4.68;2.45;;;;;;;;;;4998757;28;20174;-70
2024/01/21 04:31:10;;;;;;;10.80;3.92;;;;;;;;;;4989803;28;20046;-71
2024/01/21 04:33:36;;;;;;;4.07;2.85;;;;;;;;;;5003762;28;20061;-71
2024/01/21 04:36:03;;;;;;;4.53;2.78;;;;;;;;;;5004176;28;20034;-68
2024/01/21 04:38:28;;;;;;;10.02;3.50;;;;;;;;;;4989592;28;20070;-71
2024/01/21 04:40:53;;;;;;;3.33;2.17;;;;;;;;;;4982565;28;20039;-70
2024/01/21 04:43:19;;;;;;;16.30;3.53;;;;;;;;;;4983220;28;20051;-70
2024/01/21 04:45:45;;;;;;;7.57;3.53;;;;;;;;;;4982536;28;20034;-71
2024/01/21 04:48:10;;;;;;;5.93;2.90;;;;;;;;;;4989534;28;20050;-71
2024/01/21 04:50:35;;;;;;;6.93;2.75;;;;;;;;;;4982322;28;20114;-71
2024/01/21 04:53:01;;;;;;;7.93;2.47;;;;;;;;;;4984041;28;20069;-71
2024/01/21 04:55:26;;;;;;;9.32;3.53;;;;;;;;;;4982319;28;20132;-71
2024/01/21 04:57:51;;;;;;;6.38;2.72;;;;;;;;;;4983475;28;20042;-70
2024/01/21 05:00:17;;;;;;;4.00;3.33;;;;;;;;;;4983181;28;20086;-71
2024/01/21 05:02:43;;;;;;;6.18;3.00;;;;;;;;;;4983590;28;20027;-71
2024/01/21 05:05:08;;;;;;;5.82;3.40;;;;;;;;;;4984432;28;20043;-71
2024/01/21 05:07:34;;;;;;;5.78;2.95;;;;;;;;;;5005906;28;20081;-71
2024/01/21 05:09:59;;;;;;;7.97;3.78;;;;;;;;;;5023655;28;20046;-71
2024/01/21 05:12:24;;;;;;;8.10;3.92;;;;;;;;;;5020577;28;20026;-71
2024/01/21 05:14:50;;;;;;;9.63;4.00;;;;;;;;;;5021549;28;20036;-71
2024/01/21 05:17:15;;;;;;;8.80;3.60;;;;;;;;;;5021377;28;20042;-71
2024/01/21 05:19:41;;;;;;;8.23;3.47;;;;;;;;;;5021942;28;20066;-71
2024/01/21 05:22:06;;;;;;;8.20;3.22;;;;;;;;;;5020572;28;20042;-71
2024/01/21 05:24:34;;;;;;;4.78;2.97;;;;;;;;;;5021105;28;20052;-71
2024/01/21 05:27:00;;;;;;;8.73;4.10;;;;;;;;;;5022283;28;20172;-70
2024/01/21 05:29:25;;;;;;;5.43;2.75;;;;;;;;;;5020933;28;20034;-71
2024/01/21 05:31:51;;;;;;;9.45;4.03;;;;;;;;;;5022309;28;20053;-71
2024/01/21 05:34:16;;;;;;;4.47;2.22;;;;;;;;;;5022053;28;20081;-71
2024/01/21 05:36:42;;;;;;;7.47;3.38;;;;;;;;;;5002607;28;20508;-72
2024/01/21 05:39:07;;;;;;;5.55;2.85;;;;;;;;;;4982726;28;20049;-70
2024/01/21 05:41:33;;;;;;;5.30;2.55;;;;;;;;;;4983078;28;20039;-71
2024/01/21 05:43:58;;;;;;;6.53;2.92;;;;;;;;;;4981558;28;20966;-71
2024/01/21 05:46:24;;;;;;;7.50;3.55;;;;;;;;;;4981067;28;20170;-71
2024/01/21 05:48:49;;;;;;;5.63;2.88;;;;;;;;;;4980145;28;20070;-71
2024/01/21 05:51:15;;;;;;;10.95;4.68;;;;;;;;;;4982534;28;20039;-71
2024/01/21 05:53:41;;;;;;;7.22;3.15;;;;;;;;;;4985407;28;20548;-70
2024/01/21 05:56:07;;;;;;;6.93;3.42;;;;;;;;;;4983264;28;20054;-71
2024/01/21 05:58:33;;;;;;;4.10;2.50;;;;;;;;;;4984068;28;20031;-71
2024/01/21 06:00:58;;;;;;;7.78;3.55;;;;;;;;;;4981898;28;20039;-71
2024/01/21 06:03:23;;;;;;;5.60;3.00;;;;;;;;;;4998123;28;20031;-71
2024/01/21 06:05:49;;;;;;;8.00;3.85;;;;;;;;;;4985997;28;20033;-71
2024/01/21 06:08:14;;;;;;;8.48;3.83;;;;;;;;;;5001214;28;20086;-68
2024/01/21 06:10:39;;;;;;;6.18;2.92;;;;;;;;;;5005246;28;20049;-71
2024/01/21 06:13:05;;;;;;;6.88;3.35;;;;;;;;;;5013624;28;20067;-71
2024/01/21 06:15:30;;;;;;;9.98;3.67;;;;;;;;;;5022788;28;20060;-71
2024/01/21 06:17:56;;;;;;;9.32;3.35;;;;;;;;;;5025051;28;20034;-71
2024/01/21 06:20:21;;;;;;;8.40;3.70;;;;;;;;;;5024419;28;20046;-71
2024/01/21 06:22:47;;;;;;;9.30;3.30;;;;;;;;;;5025054;28;20065;-71
2024/01/21 06:25:12;;;;;;;9.77;3.60;;;;;;;;;;5023291;28;20056;-71
2024/01/21 06:27:38;;;;;;;7.80;3.50;;;;;;;;;;5023728;28;20042;-71
2024/01/21 06:30:11;;;;;;;8.70;3.95;;;;;;;;;;5025425;28;20049;-71
2024/01/21 06:32:36;;;;;;;8.35;3.42;;;;;;;;;;5025276;28;20106;-71
2024/01/21 06:35:02;;;;;;;6.88;3.78;;;;;;;;;;5013804;28;20482;-71
2024/01/21 06:37:28;;;;;;;10.07;3.80;;;;;;;;;;4984256;28;20047;-71
2024/01/21 06:39:53;;;;;;;8.40;3.95;;;;;;;;;;4969817;28;20054;-71
2024/01/21 06:42:18;;;;;;;10.18;4.32;;;;;;;;;;4968610;28;20114;-71
2024/01/21 06:44:44;;;;;;;10.30;4.18;;;;;;;;;;4950549;28;20110;-71
2024/01/21 06:47:09;;;;;;;10.02;3.88;;;;;;;;;;4964050;28;20047;-71
2024/01/21 06:49:34;;;;;;;6.28;3.22;;;;;;;;;;4957400;28;20501;-71
2024/01/21 06:52:00;;;;;;;9.55;4.18;;;;;;;;;;4949465;28;20584;-72
2024/01/21 06:54:25;;;;;;;9.05;4.25;;;;;;;;;;4950029;28;20073;-71
2024/01/21 06:56:50;;;;;;;9.02;4.40;;;;;;;;;;4952904;28;20599;-71
2024/01/21 06:59:16;;;;;;;8.35;4.13;;;;;;;;;;4987141;28;20141;-71
2024/01/21 07:01:41;;;;;;;9.05;4.22;;;;;;;;;;4966515;28;20042;-71
2024/01/21 07:04:07;;;;;;;11.88;5.93;;;;;;;;;;4967809;28;20039;-71
2024/01/21 07:06:32;;;;;;;10.40;4.32;;;;;;;;;;4971219;28;20154;-71
2024/01/21 07:08:57;;;;;;;12.50;4.13;;;;;;;;;;4989250;28;20625;-71
2024/01/21 07:11:23;;;;;;;6.28;3.42;;;;;;;;;;4988690;28;20034;-71
2024/01/21 07:13:48;;;;;;;9.82;3.80;;;;;;;;;;4973532;28;20061;-71
2024/01/21 07:16:14;;;;;;;6.40;2.65;;;;;;;;;;4949049;28;20054;-71
2024/01/21 07:18:39;;;;;;;11.15;5.47;;;;;;;;;;4949897;28;20066;-71
2024/01/21 07:21:04;;;;;;;11.38;5.85;;;;;;;;;;4950088;29;20031;-71
2024/01/21 07:23:30;;;;;;;5.50;3.22;;;;;;;;;;4949756;28;20695;-71
2024/01/21 07:25:56;;;;;;;8.25;4.25;;;;;;;;;;4948415;28;20043;-71
2024/01/21 07:28:22;;;;;;;7.97;3.25;;;;;;;;;;4949571;28;20051;-71
2024/01/21 07:30:47;;;;;;;7.80;3.95;;;;;;;;;;4948590;28;20043;-70
2024/01/21 07:33:12;;;;;;;11.80;5.07;;;;;;;;;;4949868;28;20027;-71
2024/01/21 07:35:38;;;;;;;8.75;4.28;;;;;;;;;;4958609;28;20053;-70
2024/01/21 07:38:03;;;;;;;10.90;4.72;;;;;;;;;;4967702;28;20115;-71
2024/01/21 07:40:30;;;;;;;6.57;3.17;;;;;;;;;;4978946;28;20494;-71
2024/01/21 07:42:55;;;;;;;11.27;5.10;;;;;;;;;;4987655;28;20038;-71
2024/01/21 07:45:21;;;;;;;7.70;2.95;;;;;;;;;;4985310;28;20030;-71
2024/01/21 07:47:46;;;;;;;6.18;3.53;;;;;;;;;;4969288;28;20031;-71
2024/01/21 07:50:12;;;;;;;6.38;2.15;;;;;;;;;;4969557;28;20093;-71
2024/01/21 07:52:37;;;;;;;11.00;4.38;;;;;;;;;;4971722;28;20035;-71
2024/01/21 07:55:03;;;;;;;12.40;4.45;;;;;;;;;;4966774;28;20034;-71
2024/01/21 07:57:28;;;;;;;10.15;5.20;;;;;;;;;;4968113;28;20041;-71
2024/01/21 07:59:54;;;;;;;13.90;6.05;;;;;;;;;;4968441;28;20038;-71
2024/01/21 08:02:19;;;;;;;10.85;4.07;;;;;;;;;;4955419;28;20517;-71
2024/01/21 08:04:44;;;;;;;7.28;3.40;;;;;;;;;;4978355;28;20527;-71
2024/01/21 08:07:10;;;;;;;8.77;4.28;;;;;;;;;;4978016;28;20051;-71
2024/01/21 08:09:35;;;;;;;7.68;4.30;;;;;;;;;;4974760;28;20043;-71
2024/01/21 08:12:00;;;;;;;8.40;3.40;;;;;;;;;;4962537;28;20026;-71
2024/01/21 08:14:26;;;;;;;8.38;4.30;;;;;;;;;;4984204;28;20431;-71
2024/01/21 08:16:52;;;;;;;8.25;4.20;;;;;;;;;;4986965;28;20084;-71
2024/01/21 08:19:19;;;;;;;8.77;4.20;;;;;;;;;;4985380;28;20074;-70
2024/01/21 08:21:45;;;;;;;6.57;2.92;;;;;;;;;;4987115;28;20042;-71
2024/01/21 08:24:11;;;;;;;8.00;3.55;;;;;;;;;;4985934;28;20026;-69
2024/01/21 08:26:36;;;;;;;12.63;3.97;;;;;;;;;;4959479;28;20085;-71
2024/01/21 08:29:02;;;;;;;7.70;3.88;;;;;;;;;;4961014;28;20041;-70
2024/01/21 08:31:27;;;;;;;7.55;3.33;;;;;;;;;;4958354;28;20045;-71
2024/01/21 08:33:52;;;;;;;9.32;3.53;;;;;;;;;;4959732;28;20098;-71
2024/01/21 08:36:18;;;;;;;6.95;3.35;;;;;;;;;;4957820;28;20030;-70
2024/01/21 08:38:43;;;;;;;8.13;3.70;;;;;;;;;;4975801;28;20116;-71
2024/01/21 08:41:09;;;;;;;5.65;3.03;;;;;;;;;;4959019;28;20118;-71
2024/01/21 08:43:34;;;;;;;7.95;3.67;;;;;;;;;;4956576;28;20071;-71
2024/01/21 08:45:59;;;;;;;7.25;3.80;;;;;;;;;;4960901;28;20043;-71
2024/01/21 08:48:25;;;;;;;7.95;3.45;;;;;;;;;;4956426;28;20030;-71
2024/01/21 08:50:50;;;;;;;12.82;5.10;;;;;;;;;;4958040;28;20484;-71
2024/01/21 08:53:15;;;;;;;12.85;5.07;;;;;;;;;;4949283;28;20433;-71
2024/01/21 08:55:41;;;;;;;14.25;6.20;;;;;;;;;;4969438;28;20042;-71
2024/01/21 08:58:06;;;;;;;10.32;3.88;;;;;;;;;;4970874;28;20055;-71
2024/01/21 09:00:32;;;;;;;15.93;5.13;;;;;;;;;;4958712;28;20046;-71
2024/01/21 09:02:57;;;;;;;12.20;5.57;;;;;;;;;;4978986;28;20034;-70
2024/01/21 09:05:23;;;;;;;9.75;4.43;;;;;;;;;;4955176;28;20047;-71
2024/01/21 09:07:48;;;;;;;11.93;4.50;;;;;;;;;;4953939;28;20042;-71
2024/01/21 09:10:14;;;;;;;20.77;7.90;;;;;;;;;;4956157;28;20283;-69
2024/01/21 09:12:39;;;;;;;18.98;7.05;;;;;;;;;;4969284;28;20093;-70
2024/01/21 09:15:05;;;;;;;15.93;5.05;;;;;;;;;;4948940;28;20039;-70
2024/01/21 09:17:31;;;;;;;14.73;4.68;;;;;;;;;;4948054;28;20045;-70
2024/01/21 09:19:56;;;;;;;17.70;5.93;;;;;;;;;;4946899;28;20456;-70
2024/01/21 09:22:22;;;;;;;21.73;6.88;;;;;;;;;;4946881;28;20039;-70
2024/01/21 09:24:47;;;;;;;14.20;5.30;;;;;;;;;;4947206;28;20043;-70
2024/01/21 09:27:13;;;;;;;13.65;5.07;;;;;;;;;;4947043;28;20081;-70
2024/01/21 09:29:39;;;;;;;17.17;6.18;;;;;;;;;;4956083;28;20584;-70
2024/01/21 09:32:05;;;;;;;14.05;5.20;;;;;;;;;;4960811;28;20035;-70
2024/01/21 09:34:30;;;;;;;9.95;4.72;;;;;;;;;;4965485;28;20523;-70
2024/01/21 09:36:56;;;;;;;12.95;5.38;;;;;;;;;;4982209;28;20042;-71
2024/01/21 09:39:21;;;;;;;13.20;5.10;;;;;;;;;;4998348;28;20088;-71
2024/01/21 09:41:51;;;;;;;9.80;4.53;;;;;;;;;;5000082;28;20467;-71
2024/01/21 09:44:25;;;;;;;13.77;3.88;;;;;;;;;;4999735;28;20050;-71
2024/01/21 09:46:59;;;;;;;7.57;4.00;;;;;;;;;;5001014;28;20038;-71
2024/01/21 09:49:25;;;;;;;9.93;3.90;;;;;;;;;;4963202;28;20098;-71
2024/01/21 09:51:52;;;;;;;8.60;3.92;;;;;;;;;;4974054;28;20035;-71
2024/01/21 09:54:21;;;;;;;6.68;3.53;;;;;;;;;;4961759;28;20031;-71
2024/01/21 09:56:47;;;;;;;7.25;3.22;;;;;;;;;;4993857;28;20030;-71
2024/01/21 09:59:13;;;;;;;8.93;4.05;;;;;;;;;;4978769;28;20038;-72
2024/01/21 10:01:40;;;;;;;7.20;3.65;;;;;;;;;;4972707;28;20043;-72
2024/01/21 10:04:07;;;;;;;8.57;3.90;;;;;;;;;;4973780;28;20046;-71
2024/01/21 10:06:33;;;;;;;8.85;4.00;;;;;;;;;;4984175;28;20034;-71
2024/01/21 10:09:17;;;;;;;6.82;3.53;;;;;;;;;;4974091;28;20498;-71
2024/01/21 10:11:54;;;;;;;6.68;3.53;;;;;;;;;;4970926;28;20050;-71
2024/01/21 10:14:20;;;;;;;3.83;2.28;;;;;;;;;;4963279;28;20468;-70
2024/01/21 10:16:46;;;;;;;8.98;4.32;;;;;;;;;;4967218;28;20089;-71
2024/01/21 10:19:15;;;;;;;8.35;3.78;;;;;;;;;;4964799;28;20057;-71
2024/01/21 10:21:41;;;;;;;7.10;3.17;;;;;;;;;;4964421;28;20042;-70
2024/01/21 10:24:09;;;;;;;8.38;4.13;;;;;;;;;;4964047;28;20047;-71
2024/01/21 10:26:41;;;;;;;5.75;2.75;;;;;;;;;;4963290;28;20680;-72
2024/01/21 10:29:06;;;;;;;7.90;3.85;;;;;;;;;;4966048;28;20027;-71
2024/01/21 10:31:33;;;;;;;6.43;3.20;;;;;;;;;;4966312;28;20409;-71
2024/01/21 10:34:01;;;;;;;8.60;4.13;;;;;;;;;;4966926;28;20137;-71
2024/01/21 10:36:32;;;;;;;6.28;3.40;;;;;;;;;;4951361;28;20126;-72
2024/01/21 10:39:01;;;;;;;5.63;2.80;;;;;;;;;;4964224;28;20101;-71
2024/01/21 10:41:33;;;;;;;7.95;2.72;;;;;;;;;;4964320;28;20085;-71
2024/01/21 10:44:01;;;;;;;8.35;3.90;;;;;;;;;;4973034;28;20038;-71
2024/01/21 10:46:30;;;;;;;5.30;2.83;;;;;;;;;;4984831;28;20038;-71
2024/01/21 10:48:57;;;;;;;9.18;3.67;;;;;;;;;;4982765;28;20110;-72
2024/01/21 10:51:23;;;;;;;7.63;3.88;;;;;;;;;;4975477;28;20038;-72
2024/01/21 10:53:52;;;;;;;4.78;2.80;;;;;;;;;;4990640;28;20126;-71
2024/01/21 10:56:19;;;;;;;4.97;2.90;;;;;;;;;;5003047;28;20046;-71
2024/01/21 10:58:46;;;;;;;7.75;3.33;;;;;;;;;;5002810;28;20034;-71
2024/01/21 11:01:13;;;;;;;8.13;3.92;;;;;;;;;;4994180;28;20049;-72
2024/01/21 11:03:39;;;;;;;7.55;3.30;;;;;;;;;;4987173;28;20051;-71
2024/01/21 11:06:10;;;;;;;8.38;4.03;;;;;;;;;;4988228;28;20046;-72
2024/01/21 11:08:36;;;;;;;6.75;3.83;;;;;;;;;;4982538;28;20448;-71
2024/01/21 11:11:16;;;;;;;6.53;2.80;;;;;;;;;;4986714;28;20022;-71
2024/01/21 11:13:52;;;;;;;12.15;4.25;;;;;;;;;;4969174;28;20552;-71
2024/01/21 11:16:26;;;;;;;8.20;3.58;;;;;;;;;;4966748;28;20058;-71
2024/01/21 11:18:52;;;;;;;5.93;3.50;;;;;;;;;;4969800;28;20049;-71
2024/01/21 11:21:21;;;;;;;7.72;3.60;;;;;;;;;;4972057;28;20050;-71
2024/01/21 11:24:12;;;;;;;7.43;3.83;;;;;;;;;;4967546;28;20050;-72
2024/01/21 11:26:41;;;;;;;10.30;4.70;;;;;;;;;;4962173;28;20121;-72
2024/01/21 11:29:26;;;;;;;8.68;4.50;;;;;;;;;;4960548;28;20122;-72
2024/01/21 11:31:53;;;;;;;8.13;4.03;;;;;;;;;;4958595;28;20062;-72
2024/01/21 11:34:18;;;;;;;7.63;3.95;;;;;;;;;;4957697;28;20627;-72
2024/01/21 11:36:45;;;;;;;9.57;4.10;;;;;;;;;;4962116;28;20177;-73
2024/01/21 11:39:10;;;;;;;7.22;3.88;;;;;;;;;;4965739;28;20047;-72
2024/01/21 11:41:41;;;;;;;4.60;2.53;;;;;;;;;;4966274;28;20050;-71
2024/01/21 11:44:24;;;;;;;10.48;4.22;;;;;;;;;;4965146;28;20766;-71
2024/01/21 11:46:50;;;;;;;8.82;4.30;;;;;;;;;;4965512;29;20024;-72
2024/01/21 11:49:16;;;;;;;12.65;4.90;;;;;;;;;;4965617;28;20039;-71
2024/01/21 11:51:43;;;;;;;5.78;2.78;;;;;;;;;;4963790;28;20595;-71
2024/01/21 11:54:09;;;;;;;7.47;3.75;;;;;;;;;;4950305;28;20039;-72
2024/01/21 11:56:36;;;;;;;7.40;3.90;;;;;;;;;;4947585;28;20576;-72
2024/01/21 11:59:03;;;;;;;8.82;3.95;;;;;;;;;;4948290;28;20054;-72
2024/01/21 12:01:30;;;;;;;9.68;4.28;;;;;;;;;;4984852;28;20274;-72
2024/01/21 12:03:56;;;;;;;8.52;3.63;;;;;;;;;;4967878;28;20049;-72
2024/01/21 12:06:21;;;;;;;9.35;4.78;;;;;;;;;;4979360;28;20705;-72
2024/01/21 12:08:47;;;;;;;8.20;3.72;;;;;;;;;;4976915;28;20043;-72
2024/01/21 12:11:14;;;;;;;6.18;3.78;;;;;;;;;;4960945;28;20039;-72
2024/01/21 12:13:40;;;;;;;8.95;4.13;;;;;;;;;;4977322;28;20046;-72
2024/01/21 12:16:08;;;;;;;8.25;3.65;;;;;;;;;;4985861;28;20065;-72
2024/01/21 12:18:43;;;;;;;8.77;4.35;;;;;;;;;;4970800;28;20093;-72
2024/01/21 12:21:13;;;;;;;7.40;3.42;;;;;;;;;;4965657;28;20034;-72
2024/01/21 12:23:46;;;;;;;11.32;4.38;;;;;;;;;;4977565;28;20108;-72
2024/01/21 12:26:18;;;;;;;;;;;;;;;;;;4962518;28;20031;-72
2024/01/21 12:28:56;;;;;;;9.98;4.38;;;;;;;;;;4961088;28;19937;-72
2024/01/21 12:31:36;;;;;;;11.30;4.13;;;;;;;;;;4976037;28;20743;-71
2024/01/21 12:34:03;;;;;;;7.22;3.95;;;;;;;;;;4963885;28;20057;-72
2024/01/21 12:36:34;;;;;;;9.68;4.38;;;;;;;;;;4966436;28;20108;-72
2024/01/21 12:39:00;;;;;;;10.13;4.68;;;;;;;;;;4964256;28;20042;-72
2024/01/21 12:41:25;;;;;;;9.43;4.43;;;;;;;;;;4963626;28;20049;-72
2024/01/21 12:43:51;;;;;;;11.98;4.63;;;;;;;;;;4967949;28;20023;-72
2024/01/21 12:46:18;;;;;;;9.25;4.93;;;;;;;;;;4962753;28;20542;-72
2024/01/21 12:48:44;;;;;;;8.38;3.15;;;;;;;;;;4966252;28;20070;-72
2024/01/21 12:51:10;;;;;;;9.10;4.28;;;;;;;;;;4965840;28;20038;-72
2024/01/21 12:53:35;;;;;;;7.88;4.38;;;;;;;;;;4967252;28;20035;-72
2024/01/21 12:56:02;;;;;;;8.50;4.50;;;;;;;;;;4966528;28;20031;-72
2024/01/21 12:58:27;;;;;;;8.70;4.45;;;;;;;;;;4967300;28;20038;-72
2024/01/21 13:00:53;;;;;;;8.80;4.15;;;;;;;;;;4966528;28;20046;-72
2024/01/21 13:03:19;;;;;;;8.30;4.38;;;;;;;;;;4967050;28;20047;-73
2024/01/21 13:05:46;;;;;;;6.82;3.40;;;;;;;;;;4965756;28;20066;-72
2024/01/21 13:08:12;;;;;;;8.27;4.60;;;;;;;;;;4983977;28;20077;-71
2024/01/21 13:10:40;;;;;;;12.23;4.50;;;;;;;;;;4987798;28;20030;-72
2024/01/21 13:13:06;;;;;;;9.27;4.45;;;;;;;;;;4990140;28;20061;-72
2024/01/21 13:15:32;;;;;;;7.00;3.83;;;;;;;;;;4984551;28;20140;-71
2024/01/21 13:17:58;;;;;;;8.45;4.20;;;;;;;;;;4986285;28;20038;-72
2024/01/21 13:20:24;;;;;;;12.35;5.15;;;;;;;;;;4986399;28;20038;-71
2024/01/21 13:22:49;;;;;;;9.77;4.70;;;;;;;;;;4987227;28;20038;-71
2024/01/21 13:25:20;;;;;;;9.60;4.38;;;;;;;;;;5001680;28;20081;-71
2024/01/21 13:27:55;;;;;;;8.23;4.25;;;;;;;;;;4985488;28;20577;-71
2024/01/21 13:33:05;;;;;;;9.07;4.30;;;;;;;;;;4986769;28;20533;-71
2024/01/21 13:35:32;;;;;;;11.32;4.90;;;;;;;;;;4992628;28;20043;-71
2024/01/21 13:37:59;;;;;;;7.07;4.07;;;;;;;;;;4956256;28;20034;-71
2024/01/21 13:40:25;;;;;;;7.65;3.83;;;;;;;;;;4967352;28;20062;-71
2024/01/21 13:42:51;;;;;;;10.52;4.68;;;;;;;;;;4976733;28;20042;-71
2024/01/21 13:45:16;;;;;;;10.32;4.40;;;;;;;;;;4976350;28;20038;-71
2024/01/21 13:47:42;;;;;;;6.00;3.47;;;;;;;;;;4967151;28;20042;-71
2024/01/21 13:50:07;;;;;;;7.95;3.97;;;;;;;;;;4965771;28;20027;-70
2024/01/21 13:52:33;;;;;;;9.55;4.50;;;;;;;;;;4967368;28;20053;-71
2024/01/21 13:54:58;;;;;;;7.80;3.83;;;;;;;;;;4966806;28;20046;-71
2024/01/21 13:57:24;;;;;;;8.65;4.50;;;;;;;;;;4966010;28;20034;-71
2024/01/21 13:59:49;;;;;;;12.30;5.63;;;;;;;;;;4966518;28;20203;-71
2024/01/21 14:02:14;;;;;;;23.65;7.38;;;;;;;;;;4966584;28;20076;-70
2024/01/21 14:04:41;;;;;;;15.93;7.28;;;;;;;;;;4967972;28;20034;-71
2024/01/21 14:07:06;;;;;;;16.75;6.22;;;;;;;;;;4972871;28;20060;-71
2024/01/21 14:09:32;;;;;;;11.38;4.88;;;;;;;;;;4996744;28;20507;-71
2024/01/21 14:11:58;;;;;;;13.20;6.03;;;;;;;;;;4988629;28;20074;-71
2024/01/21 14:14:23;;;;;;;12.23;4.72;;;;;;;;;;4985181;28;20034;-71
2024/01/21 14:16:52;;;;;;;10.95;4.65;;;;;;;;;;4985270;28;20054;-71
2024/01/21 14:19:17;;;;;;;16.70;5.40;;;;;;;;;;4985098;28;20037;-71
2024/01/21 14:21:43;;;;;;;9.02;3.92;;;;;;;;;;4986421;28;20050;-71
2024/01/21 14:24:08;;;;;;;9.23;4.70;;;;;;;;;;4986460;28;20059;-71
2024/01/21 14:26:38;;;;;;;17.80;5.22;;;;;;;;;;4975839;28;20035;-70
2024/01/21 14:29:12;;;;;;;10.63;4.43;;;;;;;;;;4970308;28;20112;-71
2024/01/21 14:31:39;;;;;;;11.70;5.18;;;;;;;;;;4969595;28;20053;-71
2024/01/21 14:34:04;;;;;;;9.15;4.20;;;;;;;;;;4968113;28;20104;-71
2024/01/21 14:36:31;;;;;;;13.85;6.80;;;;;;;;;;4979980;28;20030;-70
2024/01/21 14:38:57;;;;;;;9.63;4.45;;;;;;;;;;4970599;28;20035;-71